createdAt,value
2018-03-24T00:02:00.448Z,99.90
2018-03-24T00:04:28.013Z,99.90
2018-03-24T00:06:56.284Z,99.90
2018-03-24T00:09:24.603Z,99.90
2018-03-24T00:11:52.119Z,99.90
2018-03-24T00:14:19.626Z,99.90
2018-03-24T00:16:47.932Z,99.90
2018-03-24T00:19:15.464Z,99.90
2018-03-24T00:21:42.982Z,99.90
2018-03-24T00:24:11.269Z,99.90
2018-03-24T00:26:39.535Z,99.90
2018-03-24T00:29:07.811Z,99.90
2018-03-24T00:31:36.079Z,99.90
2018-03-24T00:34:04.415Z,99.90
2018-03-24T00:36:31.902Z,99.90
2018-03-24T00:38:59.400Z,99.90
2018-03-24T00:41:26.918Z,99.90
2018-03-24T00:43:54.568Z,99.90
2018-03-24T00:46:22.092Z,99.90
2018-03-24T00:48:49.624Z,99.90
2018-03-24T00:51:17.920Z,99.90
2018-03-24T00:53:45.490Z,99.90
2018-03-24T00:56:12.988Z,99.90
2018-03-24T00:58:40.504Z,99.90
2018-03-24T01:01:08.037Z,99.90
2018-03-24T01:03:36.305Z,99.90
2018-03-24T01:06:04.566Z,99.90
2018-03-24T01:08:32.087Z,99.90
2018-03-24T01:10:59.591Z,99.90
2018-03-24T01:13:27.903Z,99.90
2018-03-24T01:15:55.395Z,99.90
2018-03-24T01:18:22.907Z,99.90
2018-03-24T01:20:50.519Z,99.90
2018-03-24T01:23:18.035Z,99.90
2018-03-24T01:25:45.559Z,99.90
2018-03-24T01:28:13.831Z,99.90
2018-03-24T01:30:42.099Z,99.90
2018-03-24T01:33:09.623Z,99.90
2018-03-24T01:35:37.155Z,99.90
2018-03-24T01:38:04.677Z,99.90
2018-03-24T01:40:32.215Z,99.90
2018-03-24T01:42:59.771Z,99.90
2018-03-24T01:45:27.279Z,99.90
2018-03-24T01:47:55.571Z,99.90
2018-03-24T01:50:23.085Z,99.90
2018-03-24T01:52:50.601Z,99.90
2018-03-24T01:55:18.099Z,99.90
2018-03-24T01:57:45.631Z,99.90
2018-03-24T02:00:13.167Z,99.90
2018-03-24T02:02:40.658Z,99.90
2018-03-24T02:05:08.184Z,99.90
2018-03-24T02:07:35.690Z,99.90
2018-03-24T02:10:03.248Z,99.90
2018-03-24T02:12:30.745Z,99.90
2018-03-24T02:14:59.046Z,99.90
2018-03-24T02:17:26.534Z,99.90
2018-03-24T02:19:54.044Z,99.90
2018-03-24T02:22:21.560Z,99.90
2018-03-24T02:24:51.575Z,99.90
2018-03-24T02:27:19.086Z,99.90
2018-03-24T02:29:46.586Z,99.90
2018-03-24T02:32:14.128Z,99.90
2018-03-24T02:34:41.636Z,99.90
2018-03-24T02:37:09.960Z,99.90
2018-03-24T02:39:37.494Z,99.90
2018-03-24T02:42:05.006Z,99.90
2018-03-24T02:44:32.588Z,99.90
2018-03-24T02:47:00.859Z,99.90
2018-03-24T02:49:29.143Z,99.90
2018-03-24T02:51:57.426Z,99.90
2018-03-24T02:54:25.690Z,99.90
2018-03-24T02:56:54.021Z,99.90
2018-03-24T02:59:21.599Z,99.90
2018-03-24T03:01:49.104Z,99.90
2018-03-24T03:04:17.410Z,99.90
2018-03-24T03:06:44.937Z,99.90
2018-03-24T03:09:12.458Z,99.90
2018-03-24T03:11:39.963Z,99.90
2018-03-24T03:14:07.487Z,99.90
2018-03-24T03:16:34.981Z,99.90
2018-03-24T03:19:02.498Z,99.90
2018-03-24T03:21:56.847Z,99.90
2018-03-24T03:24:24.335Z,99.90
2018-03-24T03:26:51.865Z,99.90
2018-03-24T03:29:19.387Z,99.90
2018-03-24T03:31:50.104Z,99.90
2018-03-24T03:34:17.616Z,99.90
2018-03-24T03:36:45.123Z,99.90
2018-03-24T03:39:13.418Z,99.90
2018-03-24T03:41:40.956Z,99.90
2018-03-24T03:44:08.471Z,99.90
2018-03-24T03:46:35.989Z,99.90
2018-03-24T03:49:03.502Z,99.90
2018-03-24T03:51:31.026Z,99.90
2018-03-24T03:53:58.546Z,99.90
2018-03-24T03:56:26.091Z,99.90
2018-03-24T03:58:53.617Z,99.90
2018-03-24T04:01:21.160Z,99.90
2018-03-24T04:03:48.667Z,99.90
2018-03-24T04:06:16.174Z,99.90
2018-03-24T04:08:43.692Z,99.90
2018-03-24T04:11:11.227Z,99.90
2018-03-24T04:13:38.727Z,99.90
2018-03-24T04:16:07.021Z,99.90
2018-03-24T04:18:34.516Z,99.90
2018-03-24T04:21:02.087Z,99.90
2018-03-24T04:23:29.586Z,99.90
2018-03-24T04:25:57.862Z,99.90
2018-03-24T04:28:25.403Z,99.90
2018-03-24T04:30:53.687Z,99.90
2018-03-24T04:33:21.998Z,99.90
2018-03-24T04:35:49.519Z,99.90
2018-03-24T04:38:17.817Z,99.90
2018-03-24T04:40:45.342Z,99.90
2018-03-24T04:43:12.855Z,99.90
2018-03-24T04:45:40.368Z,99.90
2018-03-24T04:48:07.892Z,99.90
2018-03-24T04:50:35.390Z,99.90
2018-03-24T04:53:03.698Z,99.90
2018-03-24T04:55:31.972Z,99.90
2018-03-24T04:57:59.477Z,99.90
2018-03-24T05:00:26.975Z,99.90
2018-03-24T05:02:54.481Z,99.90
2018-03-24T05:05:22.008Z,99.90
2018-03-24T05:07:49.505Z,99.90
2018-03-24T05:10:17.069Z,99.90
2018-03-24T05:12:44.607Z,99.90
2018-03-24T05:15:12.098Z,99.90
2018-03-24T05:17:39.634Z,99.90
2018-03-24T05:20:07.136Z,99.90
2018-03-24T05:22:34.663Z,99.90
2018-03-24T05:25:02.234Z,99.90
2018-03-24T05:27:29.748Z,99.90
2018-03-24T05:29:57.250Z,99.90
2018-03-24T05:32:25.569Z,99.90
2018-03-24T05:34:53.104Z,99.90
2018-03-24T05:37:21.371Z,99.90
2018-03-24T05:39:49.666Z,99.90
2018-03-24T05:42:17.169Z,99.90
2018-03-24T05:44:44.708Z,99.90
2018-03-24T05:47:12.232Z,99.90
2018-03-24T05:49:40.494Z,99.90
2018-03-24T05:52:08.777Z,99.90
2018-03-24T05:54:37.119Z,99.90
2018-03-24T05:57:04.636Z,99.90
2018-03-24T05:59:32.126Z,99.90
2018-03-24T06:01:59.635Z,99.90
2018-03-24T06:04:27.896Z,99.90
2018-03-24T06:06:55.431Z,99.90
2018-03-24T06:09:22.940Z,99.90
2018-03-24T06:11:50.473Z,99.90
2018-03-24T06:14:17.965Z,99.90
2018-03-24T06:16:45.572Z,99.90
2018-03-24T06:19:13.085Z,99.90
2018-03-24T06:21:40.592Z,99.90
2018-03-24T06:24:08.123Z,99.90
2018-03-24T06:26:35.646Z,99.90
2018-03-24T06:29:03.930Z,99.90
2018-03-24T06:34:31.636Z,99.90
2018-03-24T06:37:14.796Z,99.90
2018-03-24T06:39:42.350Z,99.90
2018-03-24T06:42:09.845Z,99.90
2018-03-24T06:44:38.134Z,99.90
2018-03-24T06:47:05.651Z,99.90
2018-03-24T06:49:33.172Z,99.90
2018-03-24T06:52:00.696Z,99.90
2018-03-24T06:54:28.982Z,99.90
2018-03-24T06:56:56.486Z,99.90
2018-03-24T06:59:24.018Z,99.90
2018-03-24T07:01:51.532Z,99.90
2018-03-24T07:04:19.855Z,99.90
2018-03-24T07:06:47.370Z,99.90
2018-03-24T07:09:15.708Z,99.90
2018-03-24T07:11:43.217Z,99.90
2018-03-24T07:14:10.743Z,99.90
2018-03-24T07:16:38.240Z,99.90
2018-03-24T07:19:05.768Z,99.90
2018-03-24T07:21:33.278Z,99.90
2018-03-24T07:24:00.855Z,99.90
2018-03-24T07:26:28.426Z,99.90
2018-03-24T07:28:55.974Z,99.90
2018-03-24T07:31:23.483Z,99.90
2018-03-24T07:33:51.761Z,99.90
2018-03-24T07:36:20.042Z,99.90
2018-03-24T07:38:48.338Z,99.90
2018-03-24T07:41:15.866Z,99.90
2018-03-24T07:43:44.218Z,99.90
2018-03-24T07:46:11.798Z,99.90
2018-03-24T07:48:39.347Z,99.90
2018-03-24T07:51:06.836Z,99.90
2018-03-24T07:53:34.417Z,99.90
2018-03-24T07:56:01.930Z,99.90
2018-03-24T07:58:29.504Z,99.90
2018-03-24T08:00:57.816Z,99.90
2018-03-24T08:03:25.364Z,99.90
2018-03-24T08:05:52.903Z,99.90
2018-03-24T08:08:20.443Z,99.90
2018-03-24T08:10:48.764Z,99.90
2018-03-24T08:13:16.270Z,99.90
2018-03-24T08:15:43.830Z,99.90
2018-03-24T08:18:11.367Z,99.90
2018-03-24T08:20:38.879Z,99.90
2018-03-24T08:23:06.398Z,99.90
2018-03-24T08:25:33.921Z,99.90
2018-03-24T08:28:01.450Z,99.90
2018-03-24T08:30:29.026Z,99.90
2018-03-24T08:32:57.254Z,99.90
2018-03-24T08:35:24.807Z,99.90
2018-03-24T08:37:52.348Z,99.90
2018-03-24T08:40:19.885Z,99.90
2018-03-24T08:42:47.432Z,99.90
2018-03-24T08:45:14.954Z,99.90
2018-03-24T08:47:42.499Z,99.90
2018-03-24T08:50:10.084Z,99.90
2018-03-24T08:52:38.375Z,99.90
2018-03-24T08:55:05.925Z,99.90
2018-03-24T08:57:34.223Z,99.90
2018-03-24T09:00:01.740Z,99.90
2018-03-24T09:02:29.300Z,99.90
2018-03-24T09:04:56.834Z,99.90
2018-03-24T09:07:24.369Z,99.90
2018-03-24T09:09:51.919Z,99.90
2018-03-24T09:12:19.536Z,99.90
2018-03-24T09:14:47.044Z,99.90
2018-03-24T09:17:14.573Z,99.90
2018-03-24T09:19:42.895Z,99.90
2018-03-24T09:22:10.474Z,99.90
2018-03-24T09:24:37.999Z,99.90
2018-03-24T09:27:05.564Z,99.90
2018-03-24T09:29:33.116Z,99.90
2018-03-24T09:32:00.649Z,99.90
2018-03-24T09:34:28.918Z,99.90
2018-03-24T09:36:57.219Z,99.30
2018-03-24T09:39:24.769Z,99.30
2018-03-24T09:41:53.090Z,96.80
2018-03-24T09:44:20.620Z,97.10
2018-03-24T09:46:48.134Z,96.20
2018-03-24T09:49:15.648Z,98.70
2018-03-24T09:51:43.188Z,98.80
2018-03-24T09:54:10.784Z,95.10
2018-03-24T09:56:38.287Z,95.30
2018-03-24T09:59:06.622Z,94.70
2018-03-24T10:01:34.161Z,94.70
2018-03-24T10:04:01.700Z,94.50
2018-03-24T10:06:29.236Z,92.00
2018-03-24T10:08:57.549Z,92.40
2018-03-24T10:11:25.870Z,92.00
2018-03-24T10:13:53.435Z,92.00
2018-03-24T10:16:20.972Z,91.50
2018-03-24T10:18:49.276Z,91.20
2018-03-24T10:24:24.189Z,91.60
2018-03-24T10:26:51.708Z,91.00
2018-03-24T10:29:20.020Z,87.60
2018-03-24T10:31:47.619Z,87.50
2018-03-24T10:34:15.154Z,85.10
2018-03-24T10:36:42.711Z,85.30
2018-03-24T10:39:10.269Z,84.10
2018-03-24T10:41:37.778Z,85.50
2018-03-24T10:44:06.074Z,83.30
2018-03-24T10:46:33.640Z,83.00
2018-03-24T10:49:01.158Z,82.10
2018-03-24T10:51:28.686Z,77.00
2018-03-24T10:53:56.991Z,78.70
2018-03-24T10:56:24.536Z,81.40
2018-03-24T10:58:52.096Z,76.10
2018-03-24T11:01:25.139Z,76.30
2018-03-24T11:03:52.654Z,77.70
2018-03-24T11:06:20.166Z,77.90
2018-03-24T11:08:47.708Z,67.30
2018-03-24T11:11:15.244Z,69.20
2018-03-24T11:13:43.542Z,65.60
2018-03-24T11:16:11.887Z,59.00
2018-03-24T11:18:39.423Z,59.00
2018-03-24T11:21:06.957Z,55.00
2018-03-24T11:23:34.514Z,56.00
2018-03-24T11:26:02.045Z,55.60
2018-03-24T11:28:30.352Z,57.20
2018-03-24T11:30:57.901Z,57.10
2018-03-24T11:33:25.454Z,53.20
2018-03-24T11:35:52.979Z,55.40
2018-03-24T11:38:20.507Z,51.60
2018-03-24T11:40:48.036Z,57.80
2018-03-24T11:43:15.565Z,57.50
2018-03-24T11:45:43.865Z,56.10
2018-03-24T11:48:11.409Z,56.70
2018-03-24T11:50:39.720Z,49.80
2018-03-24T11:53:07.250Z,49.70
2018-03-24T11:55:35.585Z,49.40
2018-03-24T11:58:03.182Z,49.40
2018-03-24T12:00:31.472Z,50.90
2018-03-24T12:02:59.838Z,54.00
2018-03-24T12:05:28.158Z,54.10
2018-03-24T12:07:55.672Z,54.10
2018-03-24T12:10:24.005Z,57.50
2018-03-24T12:12:51.513Z,57.40
2018-03-24T12:15:19.049Z,53.80
2018-03-24T12:17:46.570Z,51.40
2018-03-24T12:20:14.111Z,48.20
2018-03-24T12:22:41.671Z,50.30
2018-03-24T12:25:09.204Z,46.10
2018-03-24T12:27:37.532Z,44.90
2018-03-24T12:30:05.058Z,44.90
2018-03-24T12:32:32.572Z,46.20
2018-03-24T12:35:00.095Z,46.40
2018-03-24T12:37:27.667Z,46.60
2018-03-24T12:39:55.189Z,48.90
2018-03-24T12:42:22.727Z,50.50
2018-03-24T12:44:51.064Z,51.70
2018-03-24T12:47:18.595Z,51.70
2018-03-24T12:49:46.184Z,51.30
2018-03-24T12:52:13.721Z,52.50
2018-03-24T12:54:41.282Z,52.90
2018-03-24T12:57:08.862Z,52.60
2018-03-24T12:59:36.407Z,53.00
2018-03-24T13:02:04.633Z,55.20
2018-03-24T13:04:32.912Z,52.10
2018-03-24T13:07:01.190Z,48.10
2018-03-24T13:09:28.762Z,47.90
2018-03-24T13:11:56.279Z,48.00
2018-03-24T13:14:23.842Z,47.60
2018-03-24T13:16:51.380Z,49.00
2018-03-24T13:19:19.026Z,44.50
2018-03-24T13:21:46.555Z,44.30
2018-03-24T13:24:14.872Z,44.00
2018-03-24T13:26:42.413Z,44.00
2018-03-24T13:29:09.942Z,42.90
2018-03-24T13:31:38.235Z,43.50
2018-03-24T13:34:05.832Z,43.50
2018-03-24T13:36:33.368Z,43.60
2018-03-24T13:39:00.886Z,44.50
2018-03-24T13:41:28.448Z,46.20
2018-03-24T13:43:56.020Z,46.10
2018-03-24T13:46:24.316Z,43.40
2018-03-24T13:48:51.953Z,43.40
2018-03-24T13:51:19.526Z,42.40
2018-03-24T13:53:47.922Z,42.00
2018-03-24T13:56:15.472Z,42.00
2018-03-24T13:58:43.388Z,42.80
2018-03-24T14:01:12.025Z,40.90
2018-03-24T14:03:39.882Z,40.90
2018-03-24T14:06:07.419Z,39.60
2018-03-24T14:08:35.737Z,41.70
2018-03-24T14:11:03.312Z,41.50
2018-03-24T14:13:30.826Z,39.10
2018-03-24T14:15:59.134Z,38.20
2018-03-24T14:18:27.441Z,40.40
2018-03-24T14:20:54.988Z,39.90
2018-03-24T14:23:22.517Z,38.30
2018-03-24T14:25:50.040Z,38.30
2018-03-24T14:28:17.585Z,37.50
2018-03-24T14:30:45.090Z,37.80
2018-03-24T14:33:12.628Z,39.80
2018-03-24T14:35:40.170Z,38.50
2018-03-24T14:38:07.706Z,41.00
2018-03-24T14:40:35.430Z,39.80
2018-03-24T14:43:02.982Z,38.50
2018-03-24T14:45:31.299Z,36.70
2018-03-24T14:47:58.892Z,36.60
2018-03-24T14:50:26.416Z,39.70
2018-03-24T14:52:53.967Z,36.80
2018-03-24T14:55:21.520Z,39.40
2018-03-24T14:57:49.052Z,36.40
2018-03-24T15:00:16.622Z,36.60
2018-03-24T15:02:44.161Z,37.00
2018-03-24T15:05:12.474Z,37.40
2018-03-24T15:07:40.024Z,37.30
2018-03-24T15:10:07.556Z,37.20
2018-03-24T15:12:35.876Z,37.20
2018-03-24T15:15:03.428Z,37.20
2018-03-24T15:17:30.946Z,36.30
2018-03-24T15:19:58.487Z,35.80
2018-03-24T15:22:25.997Z,37.30
2018-03-24T15:24:53.524Z,37.40
2018-03-24T15:27:21.801Z,37.80
2018-03-24T15:30:02.063Z,37.40
2018-03-24T15:32:42.196Z,37.60
2018-03-24T15:35:21.677Z,37.50
2018-03-24T15:37:49.226Z,38.50
2018-03-24T15:40:17.539Z,39.50
2018-03-24T15:42:45.075Z,39.50
2018-03-24T15:45:12.651Z,39.80
2018-03-24T15:47:40.209Z,41.20
2018-03-24T15:50:07.737Z,42.50
2018-03-24T15:52:35.292Z,43.80
2018-03-24T15:55:03.575Z,44.50
2018-03-24T15:57:31.886Z,45.70
2018-03-24T15:59:59.513Z,45.60
2018-03-24T16:02:27.792Z,45.70
2018-03-24T16:04:56.106Z,47.00
2018-03-24T16:07:23.627Z,47.00
2018-03-24T16:09:51.886Z,46.60
2018-03-24T16:12:20.188Z,48.20
2018-03-24T16:14:47.738Z,48.10
2018-03-24T16:17:16.045Z,49.70
2018-03-24T16:19:43.584Z,49.70
2018-03-24T16:22:11.110Z,50.50
2018-03-24T16:24:38.599Z,51.00
2018-03-24T16:27:06.148Z,50.70
2018-03-24T16:29:33.685Z,52.50
2018-03-24T16:32:02.032Z,53.50
2018-03-24T16:34:29.599Z,53.50
2018-03-24T16:36:57.163Z,52.90
2018-03-24T16:39:24.727Z,54.00
2018-03-24T16:41:52.272Z,54.80
2018-03-24T16:44:19.787Z,55.40
2018-03-24T16:46:47.313Z,54.30
2018-03-24T16:49:14.842Z,54.90
2018-03-24T16:51:42.371Z,54.90
2018-03-24T16:54:09.878Z,56.80
2018-03-24T16:56:37.414Z,56.30
2018-03-24T16:59:04.951Z,57.10
2018-03-24T17:01:32.483Z,59.10
2018-03-24T17:04:00.078Z,61.20
2018-03-24T17:06:27.624Z,59.60
2018-03-24T17:08:55.164Z,59.80
2018-03-24T17:11:23.451Z,59.60
2018-03-24T17:13:51.040Z,59.60
2018-03-24T17:16:18.599Z,59.80
2018-03-24T17:18:46.144Z,58.80
2018-03-24T17:21:13.682Z,61.90
2018-03-24T17:23:41.949Z,62.10
2018-03-24T17:26:10.417Z,62.50
2018-03-24T17:28:38.009Z,62.50
2018-03-24T17:31:05.556Z,63.40
2018-03-24T17:33:33.098Z,63.50
2018-03-24T17:36:02.050Z,65.00
2018-03-24T17:38:29.633Z,65.10
2018-03-24T17:40:57.167Z,65.20
2018-03-24T17:43:24.732Z,65.50
2018-03-24T17:45:53.117Z,67.30
2018-03-24T17:48:20.965Z,66.80
2018-03-24T17:50:48.592Z,67.20
2018-03-24T17:53:16.145Z,68.00
2018-03-24T17:55:44.655Z,69.60
2018-03-24T17:58:13.170Z,69.70
2018-03-24T18:00:40.981Z,69.70
2018-03-24T18:03:08.570Z,70.20
2018-03-24T18:05:36.123Z,71.30
2018-03-24T18:08:03.848Z,71.60
2018-03-24T18:10:31.874Z,71.50
2018-03-24T18:12:59.462Z,72.20
2018-03-24T18:15:26.985Z,72.90
2018-03-24T18:17:55.190Z,73.50
2018-03-24T18:20:23.079Z,74.50
2018-03-24T18:22:50.806Z,75.60
2018-03-24T18:25:18.613Z,77.10
2018-03-24T18:27:46.143Z,77.40
2018-03-24T18:30:13.672Z,77.80
2018-03-24T18:32:41.707Z,77.60
2018-03-24T18:35:09.682Z,77.80
2018-03-24T18:37:37.266Z,78.60
2018-03-24T18:40:04.809Z,79.00
2018-03-24T18:42:32.470Z,79.40
2018-03-24T18:45:00.602Z,79.80
2018-03-24T18:47:28.190Z,80.20
2018-03-24T18:49:55.807Z,80.60
2018-03-24T18:52:23.365Z,81.10
2018-03-24T18:54:51.379Z,81.20
2018-03-24T18:57:19.370Z,81.90
2018-03-24T18:59:46.940Z,81.80
2018-03-24T19:02:14.476Z,83.30
2018-03-24T19:04:42.861Z,83.90
2018-03-24T19:07:10.970Z,83.90
2018-03-24T19:09:39.728Z,84.60
2018-03-24T19:12:07.301Z,84.60
2018-03-24T19:14:35.801Z,84.90
2018-03-24T19:17:03.566Z,85.40
2018-03-24T19:19:31.883Z,85.50
2018-03-24T19:21:59.865Z,85.60
2018-03-24T19:24:28.304Z,87.30
2018-03-24T19:26:55.819Z,87.30
2018-03-24T19:29:24.194Z,88.10
2018-03-24T19:31:51.702Z,88.00
2018-03-24T19:34:19.357Z,88.70
2018-03-24T19:36:46.997Z,88.90
2018-03-24T19:39:14.557Z,89.50
2018-03-24T19:41:42.117Z,90.20
2018-03-24T19:44:09.789Z,90.60
2018-03-24T19:46:37.794Z,90.90
2018-03-24T19:49:05.422Z,91.00
2018-03-24T19:51:32.929Z,91.30
2018-03-24T19:54:01.264Z,91.50
2018-03-24T19:56:29.052Z,91.40
2018-03-24T19:58:56.776Z,91.60
2018-03-24T20:01:25.128Z,92.50
2018-03-24T20:03:52.633Z,92.50
2018-03-24T20:06:20.228Z,92.70
2018-03-24T20:08:49.097Z,93.20
2018-03-24T20:11:16.637Z,93.30
2018-03-24T20:13:44.180Z,93.70
2018-03-24T20:16:11.718Z,93.70
2018-03-24T20:18:39.391Z,94.10
2018-03-24T20:21:06.944Z,94.20
2018-03-24T20:23:34.468Z,94.70
2018-03-24T20:26:02.808Z,94.80
2018-03-24T20:28:30.360Z,94.80
2018-03-24T20:30:57.951Z,94.80
2018-03-24T20:33:26.266Z,95.00
2018-03-24T20:35:53.811Z,95.00
2018-03-24T20:38:21.366Z,95.50
2018-03-24T20:40:49.720Z,95.60
2018-03-24T20:43:17.282Z,95.60
2018-03-24T20:45:44.822Z,95.60
2018-03-24T20:48:12.371Z,95.90
2018-03-24T20:50:39.970Z,95.90
2018-03-24T20:53:08.533Z,96.50
2018-03-24T20:55:36.081Z,96.50
2018-03-24T20:58:03.831Z,96.50
2018-03-24T21:00:31.338Z,96.80
2018-03-24T21:03:00.053Z,97.20
2018-03-24T21:05:27.626Z,97.10
2018-03-24T21:07:55.568Z,97.10
2018-03-24T21:10:24.084Z,97.50
2018-03-24T21:12:52.559Z,97.50
2018-03-24T21:15:20.388Z,97.50
2018-03-24T21:17:48.710Z,98.10
2018-03-24T21:20:16.241Z,98.10
2018-03-24T21:22:43.770Z,98.10
2018-03-24T21:25:12.065Z,98.40
2018-03-24T21:27:40.364Z,98.70
2018-03-24T21:30:07.930Z,98.60
2018-03-24T21:32:35.440Z,98.80
2018-03-24T21:35:03.754Z,99.10
2018-03-24T21:37:31.275Z,99.10
2018-03-24T21:39:58.820Z,99.20
2018-03-24T21:42:26.384Z,99.80
2018-03-24T21:44:53.905Z,99.90
2018-03-24T21:47:21.442Z,99.90
2018-03-24T21:49:48.971Z,99.90
2018-03-24T21:52:16.513Z,99.90
2018-03-24T21:54:44.062Z,99.90
2018-03-24T21:57:11.586Z,99.90
2018-03-24T21:59:39.109Z,99.90
2018-03-24T22:02:07.432Z,99.90
2018-03-24T22:04:34.958Z,99.90
2018-03-24T22:07:03.257Z,99.90
2018-03-24T22:09:30.832Z,99.90
2018-03-24T22:11:58.359Z,99.90
2018-03-24T22:14:25.902Z,99.90
2018-03-24T22:16:54.230Z,99.90
2018-03-24T22:19:21.763Z,99.90
2018-03-24T22:21:49.310Z,99.90
2018-03-24T22:24:17.585Z,99.90
2018-03-24T22:26:45.122Z,99.90
2018-03-24T22:29:12.635Z,99.90
2018-03-24T22:31:40.159Z,99.90
2018-03-24T22:34:08.480Z,99.90
2018-03-24T22:36:36.009Z,99.90
2018-03-24T22:39:03.560Z,99.90
2018-03-24T22:41:31.844Z,99.90
2018-03-24T22:43:59.367Z,99.90
2018-03-24T22:46:26.902Z,99.90
2018-03-24T22:48:54.411Z,99.90
2018-03-24T22:51:21.953Z,99.90
2018-03-24T22:53:50.288Z,99.90
2018-03-24T22:56:17.851Z,99.90
2018-03-24T22:58:45.370Z,99.90
2018-03-24T23:01:12.930Z,99.90
2018-03-24T23:03:40.476Z,99.90
2018-03-24T23:06:08.775Z,99.90
2018-03-24T23:08:36.291Z,99.90
2018-03-24T23:11:03.841Z,99.90
2018-03-24T23:13:31.353Z,99.90
2018-03-24T23:15:58.881Z,99.90
2018-03-24T23:18:27.192Z,99.90
2018-03-24T23:20:54.747Z,99.90
2018-03-24T23:23:22.269Z,99.90
2018-03-24T23:25:49.818Z,99.90
2018-03-24T23:28:17.362Z,99.90
2018-03-24T23:30:44.851Z,99.90
2018-03-24T23:33:13.152Z,99.90
2018-03-24T23:35:40.663Z,99.90
2018-03-24T23:38:08.225Z,99.90
2018-03-24T23:40:35.726Z,99.90
2018-03-24T23:43:03.270Z,99.90
2018-03-24T23:45:31.557Z,99.90
2018-03-24T23:47:59.855Z,99.90
2018-03-24T23:50:27.977Z,99.90
2018-03-24T23:52:55.499Z,99.90
2018-03-24T23:55:23.000Z,99.90
2018-03-24T23:57:50.528Z,99.90
